TAY7CA LCLK-LGAV
Flight info
| Callsign | TAY7CA |
|---|---|
| Flight time | 1h 30m |
| Altitude | 36000 |
| Route | PHA M31 GENOS DCT PEDER DCT EVENO UM601 RDS UL995 VARIX |
| Aircraft | B738/M-SDE2E3FGHIRWXY/LB1 |
Departure
| Time | 2026-05-05 09:33 |
|---|---|
| Airport | Larnaca International Airport (LCLK) |
Arrival
| Time | 2026-05-05 11:03 |
|---|---|
| Airport | Athens Eleftherios Venizelos International Airport (LGAV) |
| Time | Latitude | Longitude | Altitude | Speed | Heading |
|---|---|---|---|---|---|
| 2026-05-05 09:03 | 34.88559 | 33.63072 | 19 ft | 0 kts | 226° |
| 2026-05-05 09:29 | 34.88556 | 33.63068 | 21 ft | 2 kts | 226° |
| 2026-05-05 09:29 | 34.88530 | 33.63045 | 19 ft | 7 kts | 202° |
| 2026-05-05 09:29 | 34.88468 | 33.63069 | 19 ft | 12 kts | 135° |
| 2026-05-05 09:29 | 34.88398 | 33.63152 | 19 ft | 15 kts | 136° |
| 2026-05-05 09:30 | 34.88362 | 33.63218 | 19 ft | 8 kts | 97° |
| 2026-05-05 09:30 | 34.88390 | 33.63274 | 19 ft | 8 kts | 44° |
| 2026-05-05 09:30 | 34.88427 | 33.63322 | 19 ft | 8 kts | 53° |
| 2026-05-05 09:30 | 34.88441 | 33.63382 | 19 ft | 7 kts | 99° |
| 2026-05-05 09:31 | 34.88409 | 33.63429 | 19 ft | 7 kts | 138° |
| 2026-05-05 09:31 | 34.88372 | 33.63468 | 20 ft | 7 kts | 137° |
| 2026-05-05 09:31 | 34.88334 | 33.63509 | 20 ft | 7 kts | 143° |
| 2026-05-05 09:31 | 34.88284 | 33.63505 | 19 ft | 8 kts | 217° |
| 2026-05-05 09:32 | 34.88269 | 33.63487 | 20 ft | 2 kts | 224° |
| 2026-05-05 09:32 | 34.88167 | 33.63364 | 19 ft | 55 kts | 226° |
| 2026-05-05 09:32 | 34.87722 | 33.62809 | 21 ft | 126 kts | 226° |
| 2026-05-05 09:32 | 34.86983 | 33.61881 | 213 ft | 167 kts | 229° |
| 2026-05-05 09:33 | 34.86153 | 33.60837 | 936 ft | 172 kts | 227° |
| 2026-05-05 09:33 | 34.85314 | 33.59776 | 1703 ft | 181 kts | 228° |
| 2026-05-05 09:33 | 34.84401 | 33.58616 | 2269 ft | 204 kts | 227° |
| 2026-05-05 09:33 | 34.83352 | 33.57288 | 2575 ft | 227 kts | 229° |
| 2026-05-05 09:34 | 34.82243 | 33.55857 | 3129 ft | 237 kts | 229° |
| 2026-05-05 09:34 | 34.81064 | 33.54332 | 3544 ft | 256 kts | 229° |
| 2026-05-05 09:34 | 34.79831 | 33.52744 | 4389 ft | 259 kts | 229° |
| 2026-05-05 09:34 | 34.78589 | 33.51149 | 5343 ft | 262 kts | 229° |
| 2026-05-05 09:35 | 34.77335 | 33.49537 | 6292 ft | 264 kts | 229° |
| 2026-05-05 09:35 | 34.74781 | 33.46259 | 8022 ft | 270 kts | 229° |
| 2026-05-05 09:35 | 34.73482 | 33.44591 | 8880 ft | 273 kts | 229° |
| 2026-05-05 09:36 | 34.72171 | 33.42910 | 9768 ft | 276 kts | 229° |
| 2026-05-05 09:36 | 34.70839 | 33.41202 | 10445 ft | 285 kts | 230° |
| 2026-05-05 09:36 | 34.69415 | 33.39366 | 10640 ft | 311 kts | 232° |
| 2026-05-05 09:36 | 34.68265 | 33.37077 | 10819 ft | 328 kts | 253° |
| 2026-05-05 09:37 | 34.67951 | 33.34307 | 11279 ft | 336 kts | 273° |
| 2026-05-05 09:37 | 34.68065 | 33.31457 | 12026 ft | 339 kts | 275° |
| 2026-05-05 09:37 | 34.68211 | 33.28593 | 12868 ft | 340 kts | 276° |
| 2026-05-05 09:37 | 34.68354 | 33.25715 | 13685 ft | 342 kts | 276° |
| 2026-05-05 09:38 | 34.68486 | 33.22821 | 14413 ft | 344 kts | 276° |
| 2026-05-05 09:38 | 34.68608 | 33.19914 | 15192 ft | 344 kts | 276° |
| 2026-05-05 09:38 | 34.68722 | 33.17050 | 15954 ft | 344 kts | 276° |
| 2026-05-05 09:38 | 34.68837 | 33.14140 | 16696 ft | 345 kts | 276° |
| 2026-05-05 09:39 | 34.68951 | 33.11225 | 17429 ft | 346 kts | 276° |
| 2026-05-05 09:39 | 34.69065 | 33.08303 | 18168 ft | 347 kts | 276° |
| 2026-05-05 09:39 | 34.69180 | 33.05359 | 18758 ft | 350 kts | 277° |
| 2026-05-05 09:39 | 34.69295 | 33.02391 | 19285 ft | 353 kts | 277° |
| 2026-05-05 09:40 | 34.69410 | 32.99405 | 19850 ft | 355 kts | 277° |
| 2026-05-05 09:40 | 34.69524 | 32.96397 | 20388 ft | 358 kts | 277° |
| 2026-05-05 09:40 | 34.69640 | 32.93362 | 20873 ft | 362 kts | 277° |
| 2026-05-05 09:40 | 34.69756 | 32.90292 | 21406 ft | 365 kts | 278° |
| 2026-05-05 09:41 | 34.69871 | 32.87200 | 21923 ft | 368 kts | 278° |
| 2026-05-05 09:41 | 34.69986 | 32.84090 | 22395 ft | 371 kts | 278° |
| 2026-05-05 09:41 | 34.70102 | 32.80941 | 22874 ft | 374 kts | 278° |
| 2026-05-05 09:41 | 34.70218 | 32.77771 | 23367 ft | 377 kts | 278° |
| 2026-05-05 09:42 | 34.70334 | 32.74580 | 23785 ft | 380 kts | 278° |
| 2026-05-05 09:42 | 34.70451 | 32.71359 | 24160 ft | 383 kts | 278° |
| 2026-05-05 09:42 | 34.70569 | 32.68122 | 24550 ft | 385 kts | 278° |
| 2026-05-05 09:42 | 34.70688 | 32.64858 | 24916 ft | 388 kts | 278° |
| 2026-05-05 09:43 | 34.70808 | 32.61569 | 25257 ft | 391 kts | 278° |
| 2026-05-05 09:43 | 34.70928 | 32.58262 | 25626 ft | 393 kts | 277° |
| 2026-05-05 09:43 | 34.71048 | 32.54937 | 25981 ft | 396 kts | 277° |
| 2026-05-05 09:43 | 34.71167 | 32.51584 | 26325 ft | 398 kts | 277° |
| 2026-05-05 09:44 | 34.71188 | 32.48197 | 26671 ft | 403 kts | 274° |
| 2026-05-05 09:44 | 34.71100 | 32.45933 | 26892 ft | 406 kts | 272° |
| 2026-05-05 09:44 | 34.70900 | 32.42497 | 27211 ft | 409 kts | 271° |
| 2026-05-05 09:44 | 34.70673 | 32.39045 | 27525 ft | 411 kts | 271° |
| 2026-05-05 09:45 | 34.70450 | 32.35571 | 27837 ft | 414 kts | 271° |
| 2026-05-05 09:45 | 34.70238 | 32.32076 | 28141 ft | 416 kts | 271° |
| 2026-05-05 09:45 | 34.70037 | 32.28565 | 28434 ft | 418 kts | 271° |
| 2026-05-05 09:45 | 34.69840 | 32.25027 | 28720 ft | 420 kts | 271° |
| 2026-05-05 09:46 | 34.69647 | 32.21479 | 29014 ft | 422 kts | 271° |
| 2026-05-05 09:46 | 34.69453 | 32.17918 | 29349 ft | 423 kts | 271° |
| 2026-05-05 09:46 | 34.69257 | 32.14353 | 29784 ft | 421 kts | 271° |
| 2026-05-05 09:46 | 34.69062 | 32.10811 | 30241 ft | 419 kts | 271° |
| 2026-05-05 09:47 | 34.68866 | 32.07292 | 30608 ft | 418 kts | 270° |
| 2026-05-05 09:47 | 34.68671 | 32.03768 | 30918 ft | 418 kts | 270° |
| 2026-05-05 09:47 | 34.68475 | 32.00251 | 31234 ft | 417 kts | 270° |
| 2026-05-05 09:47 | 34.68277 | 31.96738 | 31579 ft | 416 kts | 270° |
| 2026-05-05 09:48 | 34.68315 | 31.93251 | 31898 ft | 411 kts | 280° |
| 2026-05-05 09:48 | 34.68852 | 31.89857 | 32217 ft | 407 kts | 287° |
| 2026-05-05 09:48 | 34.69717 | 31.86594 | 32543 ft | 405 kts | 294° |
| 2026-05-05 09:48 | 34.70992 | 31.83555 | 32852 ft | 404 kts | 300° |
| 2026-05-05 09:49 | 34.72424 | 31.80621 | 33162 ft | 403 kts | 301° |
| 2026-05-05 09:49 | 34.73872 | 31.77704 | 33471 ft | 403 kts | 301° |
| 2026-05-05 09:49 | 34.75319 | 31.74790 | 33783 ft | 402 kts | 301° |
| 2026-05-05 09:49 | 34.76739 | 31.71915 | 34074 ft | 401 kts | 301° |
| 2026-05-05 09:50 | 34.78172 | 31.68997 | 34304 ft | 402 kts | 301° |
| 2026-05-05 09:50 | 34.79599 | 31.66074 | 34498 ft | 403 kts | 300° |
| 2026-05-05 09:50 | 34.81027 | 31.63139 | 34704 ft | 403 kts | 300° |
| 2026-05-05 09:50 | 34.82452 | 31.60204 | 34935 ft | 403 kts | 300° |
| 2026-05-05 09:51 | 34.83875 | 31.57266 | 35158 ft | 403 kts | 300° |
| 2026-05-05 09:51 | 34.85299 | 31.54325 | 35351 ft | 404 kts | 300° |
| 2026-05-05 09:51 | 34.86725 | 31.51377 | 35548 ft | 404 kts | 300° |
| 2026-05-05 09:51 | 34.88150 | 31.48429 | 35764 ft | 404 kts | 300° |
| 2026-05-05 09:52 | 34.89576 | 31.45474 | 35952 ft | 405 kts | 300° |
| 2026-05-05 09:52 | 34.91010 | 31.42502 | 36018 ft | 408 kts | 300° |
| 2026-05-05 09:52 | 34.92448 | 31.39520 | 36210 ft | 408 kts | 300° |
| 2026-05-05 09:52 | 34.93880 | 31.36545 | 36475 ft | 407 kts | 300° |
| 2026-05-05 09:53 | 34.95309 | 31.33577 | 36733 ft | 405 kts | 300° |
| 2026-05-05 09:53 | 34.96735 | 31.30612 | 36924 ft | 405 kts | 299° |
| 2026-05-05 09:53 | 34.98162 | 31.27641 | 37085 ft | 406 kts | 299° |
| 2026-05-05 09:53 | 34.99591 | 31.24666 | 37229 ft | 407 kts | 299° |
| 2026-05-05 09:54 | 35.01020 | 31.21685 | 37400 ft | 408 kts | 299° |
| 2026-05-05 09:54 | 35.02453 | 31.18694 | 37596 ft | 407 kts | 299° |
| 2026-05-05 09:54 | 35.03881 | 31.15712 | 37769 ft | 408 kts | 299° |
| 2026-05-05 09:54 | 35.05311 | 31.12723 | 37927 ft | 408 kts | 299° |
| 2026-05-05 09:55 | 35.08167 | 31.06745 | 37997 ft | 408 kts | 299° |
| 2026-05-05 09:55 | 35.11025 | 31.00752 | 38012 ft | 409 kts | 299° |
| 2026-05-05 09:56 | 35.13891 | 30.94731 | 38010 ft | 411 kts | 299° |
| 2026-05-05 09:56 | 35.16764 | 30.88689 | 38007 ft | 412 kts | 300° |
| 2026-05-05 09:57 | 35.20273 | 30.83142 | 38020 ft | 414 kts | 311° |
| 2026-05-05 09:57 | 35.24216 | 30.78057 | 38010 ft | 414 kts | 311° |
| 2026-05-05 09:58 | 35.28175 | 30.72933 | 38005 ft | 414 kts | 311° |
| 2026-05-05 09:58 | 35.32118 | 30.67785 | 38009 ft | 414 kts | 311° |
| 2026-05-05 09:59 | 35.36040 | 30.62643 | 38009 ft | 413 kts | 311° |
| 2026-05-05 09:59 | 35.39954 | 30.57499 | 38005 ft | 412 kts | 311° |
| 2026-05-05 10:00 | 35.43854 | 30.52366 | 38007 ft | 411 kts | 311° |
| 2026-05-05 10:00 | 35.47747 | 30.47234 | 38004 ft | 410 kts | 311° |
| 2026-05-05 10:01 | 35.51632 | 30.42105 | 38010 ft | 410 kts | 311° |
| 2026-05-05 10:01 | 35.55511 | 30.36977 | 38009 ft | 410 kts | 311° |
| 2026-05-05 10:02 | 35.59388 | 30.31843 | 38008 ft | 410 kts | 311° |
| 2026-05-05 10:02 | 35.63264 | 30.26702 | 38007 ft | 410 kts | 311° |
| 2026-05-05 10:03 | 35.67144 | 30.21548 | 38005 ft | 411 kts | 311° |
| 2026-05-05 10:03 | 35.71024 | 30.16386 | 38009 ft | 411 kts | 311° |
| 2026-05-05 10:04 | 35.74905 | 30.11215 | 38011 ft | 412 kts | 311° |
| 2026-05-05 10:04 | 35.78798 | 30.06021 | 38004 ft | 413 kts | 311° |
| 2026-05-05 10:05 | 35.82474 | 30.00605 | 38008 ft | 412 kts | 302° |
| 2026-05-05 10:05 | 35.84957 | 29.94254 | 38010 ft | 413 kts | 290° |
| 2026-05-05 10:06 | 35.86760 | 29.87529 | 38005 ft | 414 kts | 289° |
| 2026-05-05 10:06 | 35.88560 | 29.80792 | 38000 ft | 414 kts | 289° |
| 2026-05-05 10:07 | 35.90384 | 29.74055 | 38006 ft | 414 kts | 289° |
| 2026-05-05 10:07 | 35.92213 | 29.67319 | 38008 ft | 414 kts | 289° |
| 2026-05-05 10:08 | 35.94031 | 29.60611 | 38010 ft | 414 kts | 289° |
| 2026-05-05 10:08 | 35.95853 | 29.53868 | 38008 ft | 414 kts | 289° |
| 2026-05-05 10:09 | 35.97670 | 29.47120 | 38005 ft | 414 kts | 289° |
| 2026-05-05 10:09 | 35.99479 | 29.40378 | 38008 ft | 414 kts | 289° |
| 2026-05-05 10:10 | 36.01286 | 29.33629 | 38005 ft | 413 kts | 289° |
| 2026-05-05 10:10 | 36.03085 | 29.26895 | 38001 ft | 413 kts | 289° |
| 2026-05-05 10:11 | 36.04881 | 29.20153 | 38003 ft | 413 kts | 289° |
| 2026-05-05 10:11 | 36.06670 | 29.13419 | 38003 ft | 412 kts | 289° |
| 2026-05-05 10:12 | 36.08455 | 29.06687 | 38003 ft | 412 kts | 289° |
| 2026-05-05 10:12 | 36.10234 | 28.99955 | 38005 ft | 412 kts | 289° |
| 2026-05-05 10:13 | 36.12011 | 28.93216 | 38006 ft | 412 kts | 289° |
| 2026-05-05 10:13 | 36.13784 | 28.86474 | 38005 ft | 412 kts | 289° |
| 2026-05-05 10:14 | 36.15553 | 28.79730 | 38005 ft | 412 kts | 289° |
| 2026-05-05 10:14 | 36.17321 | 28.72974 | 38009 ft | 412 kts | 289° |
| 2026-05-05 10:15 | 36.19085 | 28.66215 | 38007 ft | 413 kts | 289° |
| 2026-05-05 10:15 | 36.20845 | 28.59450 | 38009 ft | 413 kts | 289° |
| 2026-05-05 10:16 | 36.22603 | 28.52680 | 38004 ft | 413 kts | 289° |
| 2026-05-05 10:16 | 36.24347 | 28.45941 | 38008 ft | 413 kts | 289° |
| 2026-05-05 10:17 | 36.26093 | 28.39155 | 38006 ft | 413 kts | 289° |
| 2026-05-05 10:17 | 36.27835 | 28.32366 | 38001 ft | 414 kts | 289° |
| 2026-05-05 10:18 | 36.29576 | 28.25566 | 37995 ft | 414 kts | 289° |
| 2026-05-05 10:18 | 36.31312 | 28.18765 | 37996 ft | 414 kts | 289° |
| 2026-05-05 10:19 | 36.33046 | 28.11961 | 37992 ft | 414 kts | 289° |
| 2026-05-05 10:19 | 36.34999 | 28.05264 | 37998 ft | 412 kts | 295° |
| 2026-05-05 10:20 | 36.37365 | 27.98776 | 37994 ft | 413 kts | 295° |
| 2026-05-05 10:20 | 36.39728 | 27.92286 | 37996 ft | 412 kts | 295° |
| 2026-05-05 10:21 | 36.42066 | 27.85785 | 38005 ft | 412 kts | 295° |
| 2026-05-05 10:21 | 36.44393 | 27.79282 | 38011 ft | 412 kts | 295° |
| 2026-05-05 10:22 | 36.46716 | 27.72780 | 38023 ft | 412 kts | 295° |
| 2026-05-05 10:22 | 36.49030 | 27.66272 | 38031 ft | 411 kts | 295° |
| 2026-05-05 10:23 | 36.51336 | 27.59766 | 38037 ft | 411 kts | 295° |
| 2026-05-05 10:23 | 36.53637 | 27.53260 | 38041 ft | 411 kts | 295° |
| 2026-05-05 10:24 | 36.55933 | 27.46755 | 38037 ft | 411 kts | 295° |
| 2026-05-05 10:24 | 36.58228 | 27.40241 | 38046 ft | 411 kts | 295° |
| 2026-05-05 10:25 | 36.60521 | 27.33718 | 38048 ft | 411 kts | 295° |
| 2026-05-05 10:25 | 36.62808 | 27.27199 | 38051 ft | 411 kts | 295° |
| 2026-05-05 10:26 | 36.65093 | 27.20668 | 38047 ft | 411 kts | 295° |
| 2026-05-05 10:26 | 36.67378 | 27.14129 | 38051 ft | 412 kts | 295° |
| 2026-05-05 10:27 | 36.69272 | 27.08687 | 38050 ft | 412 kts | 295° |
| 2026-05-05 10:27 | 36.71543 | 27.02141 | 38046 ft | 412 kts | 295° |
| 2026-05-05 10:28 | 36.73813 | 26.95584 | 38048 ft | 412 kts | 295° |
| 2026-05-05 10:28 | 36.76081 | 26.89019 | 38053 ft | 412 kts | 295° |
| 2026-05-05 10:29 | 36.78345 | 26.82453 | 38067 ft | 412 kts | 295° |
| 2026-05-05 10:29 | 36.80601 | 26.75895 | 38068 ft | 411 kts | 295° |
| 2026-05-05 10:30 | 36.82853 | 26.69333 | 38075 ft | 411 kts | 295° |
| 2026-05-05 10:30 | 36.85103 | 26.62782 | 38078 ft | 410 kts | 295° |
| 2026-05-05 10:31 | 36.87349 | 26.56236 | 38078 ft | 410 kts | 295° |
| 2026-05-05 10:31 | 36.89572 | 26.49737 | 38085 ft | 409 kts | 295° |
| 2026-05-05 10:32 | 36.91815 | 26.43149 | 38085 ft | 409 kts | 295° |
| 2026-05-05 10:32 | 36.94020 | 26.36655 | 38093 ft | 409 kts | 295° |
| 2026-05-05 10:33 | 36.96238 | 26.30111 | 38088 ft | 409 kts | 295° |
| 2026-05-05 10:33 | 36.98453 | 26.23567 | 38096 ft | 409 kts | 295° |
| 2026-05-05 10:34 | 37.00677 | 26.17019 | 38091 ft | 409 kts | 295° |
| 2026-05-05 10:34 | 37.02900 | 26.10466 | 38096 ft | 409 kts | 295° |
| 2026-05-05 10:35 | 37.05120 | 26.03905 | 38102 ft | 410 kts | 295° |
| 2026-05-05 10:35 | 37.07340 | 25.97330 | 38097 ft | 410 kts | 295° |
| 2026-05-05 10:36 | 37.09558 | 25.90740 | 38099 ft | 411 kts | 295° |
| 2026-05-05 10:36 | 37.11737 | 25.84248 | 38077 ft | 391 kts | 295° |
| 2026-05-05 10:37 | 37.12770 | 25.81162 | 38079 ft | 377 kts | 295° |
| 2026-05-05 10:37 | 37.13763 | 25.78194 | 38089 ft | 362 kts | 295° |
| 2026-05-05 10:37 | 37.15694 | 25.72430 | 38113 ft | 361 kts | 295° |
| 2026-05-05 10:38 | 37.17660 | 25.66556 | 38119 ft | 370 kts | 295° |
| 2026-05-05 10:38 | 37.18652 | 25.63579 | 37881 ft | 371 kts | 295° |
| 2026-05-05 10:38 | 37.19648 | 25.60588 | 36992 ft | 373 kts | 295° |
| 2026-05-05 10:39 | 37.20662 | 25.57545 | 35778 ft | 383 kts | 295° |
| 2026-05-05 10:39 | 37.21704 | 25.54413 | 34526 ft | 395 kts | 296° |
| 2026-05-05 10:39 | 37.22772 | 25.51200 | 33314 ft | 402 kts | 296° |
| 2026-05-05 10:39 | 37.23831 | 25.47962 | 32436 ft | 399 kts | 295° |
| 2026-05-05 10:40 | 37.24864 | 25.44761 | 31751 ft | 392 kts | 295° |
| 2026-05-05 10:40 | 37.25880 | 25.41614 | 31082 ft | 386 kts | 296° |
| 2026-05-05 10:40 | 37.26885 | 25.38507 | 30350 ft | 382 kts | 296° |
| 2026-05-05 10:40 | 37.27863 | 25.35422 | 29562 ft | 378 kts | 294° |
| 2026-05-05 10:41 | 37.28723 | 25.32368 | 28846 ft | 373 kts | 292° |
| 2026-05-05 10:41 | 37.29534 | 25.29299 | 28381 ft | 370 kts | 291° |
| 2026-05-05 10:41 | 37.30334 | 25.26239 | 27904 ft | 367 kts | 291° |
| 2026-05-05 10:41 | 37.31129 | 25.23212 | 27463 ft | 363 kts | 291° |
| 2026-05-05 10:42 | 37.32712 | 25.17244 | 26619 ft | 357 kts | 291° |
| 2026-05-05 10:42 | 37.33496 | 25.14303 | 26230 ft | 354 kts | 291° |
| 2026-05-05 10:42 | 37.34275 | 25.11382 | 25811 ft | 351 kts | 291° |
| 2026-05-05 10:43 | 37.35049 | 25.08481 | 25404 ft | 349 kts | 291° |
| 2026-05-05 10:43 | 37.35818 | 25.05592 | 24999 ft | 347 kts | 290° |
| 2026-05-05 10:43 | 37.36580 | 25.02727 | 24555 ft | 346 kts | 290° |
| 2026-05-05 10:43 | 37.37352 | 24.99831 | 23938 ft | 351 kts | 290° |
| 2026-05-05 10:44 | 37.38129 | 24.96911 | 23409 ft | 351 kts | 290° |
| 2026-05-05 10:44 | 37.38899 | 24.94012 | 22967 ft | 349 kts | 290° |
| 2026-05-05 10:44 | 37.39663 | 24.91131 | 22538 ft | 346 kts | 290° |
| 2026-05-05 10:44 | 37.40418 | 24.88279 | 22142 ft | 343 kts | 290° |
| 2026-05-05 10:45 | 37.41169 | 24.85444 | 21753 ft | 339 kts | 290° |
| 2026-05-05 10:45 | 37.41910 | 24.82640 | 21332 ft | 337 kts | 290° |
| 2026-05-05 10:45 | 37.42645 | 24.79858 | 20951 ft | 334 kts | 290° |
| 2026-05-05 10:45 | 37.43374 | 24.77096 | 20558 ft | 331 kts | 290° |
| 2026-05-05 10:46 | 37.44096 | 24.74357 | 20174 ft | 329 kts | 290° |
| 2026-05-05 10:46 | 37.44813 | 24.71637 | 19795 ft | 326 kts | 290° |
| 2026-05-05 10:46 | 37.45524 | 24.68933 | 19413 ft | 324 kts | 290° |
| 2026-05-05 10:46 | 37.46230 | 24.66247 | 19046 ft | 322 kts | 290° |
| 2026-05-05 10:47 | 37.46931 | 24.63577 | 18672 ft | 321 kts | 290° |
| 2026-05-05 10:47 | 37.47628 | 24.60918 | 18293 ft | 319 kts | 290° |
| 2026-05-05 10:47 | 37.48323 | 24.58268 | 17863 ft | 318 kts | 290° |
| 2026-05-05 10:47 | 37.49012 | 24.55633 | 17468 ft | 316 kts | 290° |
| 2026-05-05 10:48 | 37.49696 | 24.53017 | 17080 ft | 314 kts | 290° |
| 2026-05-05 10:48 | 37.50375 | 24.50416 | 16707 ft | 311 kts | 290° |
| 2026-05-05 10:48 | 37.51048 | 24.47836 | 16341 ft | 310 kts | 290° |
| 2026-05-05 10:48 | 37.51718 | 24.45267 | 15965 ft | 308 kts | 290° |
| 2026-05-05 10:49 | 37.52383 | 24.42712 | 15606 ft | 306 kts | 290° |
| 2026-05-05 10:49 | 37.53045 | 24.40169 | 15246 ft | 305 kts | 290° |
| 2026-05-05 10:49 | 37.53704 | 24.37635 | 14888 ft | 304 kts | 290° |
| 2026-05-05 10:49 | 37.54359 | 24.35111 | 14527 ft | 303 kts | 290° |
| 2026-05-05 10:50 | 37.55012 | 24.32594 | 14164 ft | 302 kts | 290° |
| 2026-05-05 10:50 | 37.55617 | 24.30061 | 13772 ft | 303 kts | 283° |
| 2026-05-05 10:50 | 37.55745 | 24.27564 | 13345 ft | 308 kts | 272° |
| 2026-05-05 10:50 | 37.55675 | 24.24862 | 12920 ft | 308 kts | 270° |
| 2026-05-05 10:51 | 37.55569 | 24.22172 | 12545 ft | 307 kts | 270° |
| 2026-05-05 10:51 | 37.55462 | 24.19493 | 12183 ft | 305 kts | 270° |
| 2026-05-05 10:51 | 37.55362 | 24.16824 | 11819 ft | 304 kts | 270° |
| 2026-05-05 10:51 | 37.55268 | 24.14173 | 11468 ft | 303 kts | 270° |
| 2026-05-05 10:52 | 37.55179 | 24.11524 | 11107 ft | 301 kts | 270° |
| 2026-05-05 10:52 | 37.55094 | 24.08895 | 10754 ft | 300 kts | 270° |
| 2026-05-05 10:52 | 37.55010 | 24.06280 | 10535 ft | 295 kts | 270° |
| 2026-05-05 10:52 | 37.54928 | 24.03737 | 10392 ft | 286 kts | 270° |
| 2026-05-05 10:53 | 37.54849 | 24.01267 | 10257 ft | 278 kts | 270° |
| 2026-05-05 10:53 | 37.54773 | 23.98866 | 10138 ft | 270 kts | 270° |
| 2026-05-05 10:53 | 37.54698 | 23.96514 | 9884 ft | 268 kts | 271° |
| 2026-05-05 10:53 | 37.54624 | 23.94174 | 9603 ft | 267 kts | 270° |
| 2026-05-05 10:54 | 37.54550 | 23.91845 | 9314 ft | 265 kts | 270° |
| 2026-05-05 10:54 | 37.54476 | 23.89528 | 9011 ft | 264 kts | 270° |
| 2026-05-05 10:54 | 37.54401 | 23.87204 | 8672 ft | 266 kts | 270° |
| 2026-05-05 10:54 | 37.54326 | 23.84886 | 8386 ft | 265 kts | 270° |
| 2026-05-05 10:55 | 37.54250 | 23.82577 | 8101 ft | 263 kts | 270° |
| 2026-05-05 10:55 | 37.54176 | 23.80307 | 7835 ft | 262 kts | 270° |
| 2026-05-05 10:55 | 37.54099 | 23.78017 | 7564 ft | 261 kts | 270° |
| 2026-05-05 10:55 | 37.54023 | 23.75739 | 7299 ft | 260 kts | 270° |
| 2026-05-05 10:56 | 37.53947 | 23.73476 | 7029 ft | 258 kts | 270° |
| 2026-05-05 10:56 | 37.53990 | 23.71229 | 6723 ft | 255 kts | 288° |
| 2026-05-05 10:56 | 37.54931 | 23.69431 | 6457 ft | 246 kts | 326° |
| 2026-05-05 10:56 | 37.56514 | 23.68828 | 6234 ft | 239 kts | 5° |
| 2026-05-05 10:57 | 37.58094 | 23.69408 | 6030 ft | 237 kts | 20° |
| 2026-05-05 10:57 | 37.59590 | 23.70129 | 5782 ft | 244 kts | 19° |
| 2026-05-05 10:57 | 37.61218 | 23.70852 | 5514 ft | 252 kts | 17° |
| 2026-05-05 10:57 | 37.62897 | 23.71536 | 5229 ft | 254 kts | 16° |
| 2026-05-05 10:58 | 37.64567 | 23.72174 | 4943 ft | 254 kts | 15° |
| 2026-05-05 10:58 | 37.66263 | 23.72790 | 4642 ft | 253 kts | 14° |
| 2026-05-05 10:58 | 37.67956 | 23.73383 | 4368 ft | 252 kts | 14° |
| 2026-05-05 10:58 | 37.69641 | 23.73960 | 4160 ft | 248 kts | 13° |
| 2026-05-05 10:59 | 37.71283 | 23.74517 | 4038 ft | 241 kts | 13° |
| 2026-05-05 10:59 | 37.72882 | 23.75057 | 3922 ft | 234 kts | 13° |
| 2026-05-05 10:59 | 37.74437 | 23.75581 | 3815 ft | 227 kts | 13° |
| 2026-05-05 10:59 | 37.75870 | 23.76370 | 3716 ft | 228 kts | 33° |
| 2026-05-05 11:00 | 37.77156 | 23.77607 | 3628 ft | 239 kts | 35° |
| 2026-05-05 11:00 | 37.78524 | 23.78887 | 3377 ft | 248 kts | 34° |
| 2026-05-05 11:00 | 37.79917 | 23.80192 | 3108 ft | 249 kts | 35° |
| 2026-05-05 11:00 | 37.81294 | 23.81505 | 2917 ft | 244 kts | 35° |
| 2026-05-05 11:01 | 37.82659 | 23.82809 | 2678 ft | 251 kts | 35° |
| 2026-05-05 11:01 | 37.84060 | 23.84157 | 2317 ft | 252 kts | 36° |
| 2026-05-05 11:01 | 37.85436 | 23.85466 | 1982 ft | 241 kts | 36° |
| 2026-05-05 11:01 | 37.86723 | 23.86699 | 1682 ft | 224 kts | 35° |
| 2026-05-05 11:02 | 37.87930 | 23.87851 | 1376 ft | 211 kts | 36° |
| 2026-05-05 11:02 | 37.89056 | 23.88927 | 1120 ft | 196 kts | 36° |
| 2026-05-05 11:02 | 37.90091 | 23.89917 | 872 ft | 179 kts | 38° |
| 2026-05-05 11:02 | 37.91043 | 23.90832 | 640 ft | 162 kts | 38° |
| 2026-05-05 11:03 | 37.91902 | 23.91645 | 415 ft | 148 kts | 40° |
| 2026-05-05 11:03 | 37.92693 | 23.92401 | 305 ft | 135 kts | 40° |
| 2026-05-05 11:03 | 37.93340 | 23.93022 | 293 ft | 96 kts | 36° |
| 2026-05-05 11:03 | 37.93740 | 23.93403 | 291 ft | 42 kts | 37° |
| 2026-05-05 11:04 | 37.93892 | 23.93598 | 296 ft | 29 kts | 58° |
| 2026-05-05 11:04 | 37.93943 | 23.93785 | 299 ft | 15 kts | 108° |
| 2026-05-05 11:04 | 37.93898 | 23.93823 | 300 ft | 8 kts | 185° |
| 2026-05-05 11:04 | 37.93849 | 23.93786 | 300 ft | 9 kts | 218° |
| 2026-05-05 11:05 | 37.93791 | 23.93727 | 301 ft | 13 kts | 219° |
| 2026-05-05 11:05 | 37.93707 | 23.93648 | 299 ft | 17 kts | 216° |
| 2026-05-05 11:05 | 37.93599 | 23.93545 | 300 ft | 21 kts | 218° |
| 2026-05-05 11:05 | 37.93487 | 23.93441 | 298 ft | 16 kts | 211° |
| 2026-05-05 11:06 | 37.93399 | 23.93491 | 303 ft | 15 kts | 126° |
| 2026-05-05 11:06 | 37.93337 | 23.93598 | 301 ft | 15 kts | 126° |
| 2026-05-05 11:06 | 37.93277 | 23.93699 | 300 ft | 14 kts | 126° |
| 2026-05-05 11:06 | 37.93216 | 23.93799 | 302 ft | 15 kts | 129° |
| 2026-05-05 11:07 | 37.93148 | 23.93915 | 300 ft | 18 kts | 128° |
| 2026-05-05 11:07 | 37.93080 | 23.94004 | 300 ft | 12 kts | 159° |
| 2026-05-05 11:07 | 37.93005 | 23.93967 | 303 ft | 13 kts | 217° |
| 2026-05-05 11:07 | 37.92931 | 23.93898 | 302 ft | 14 kts | 216° |
| 2026-05-05 11:08 | 37.92860 | 23.93839 | 302 ft | 10 kts | 196° |
| 2026-05-05 11:08 | 37.92802 | 23.93883 | 302 ft | 10 kts | 127° |
| 2026-05-05 11:08 | 37.92756 | 23.93959 | 301 ft | 11 kts | 129° |
| 2026-05-05 11:08 | 37.92708 | 23.94040 | 303 ft | 12 kts | 128° |
| 2026-05-05 11:09 | 37.92666 | 23.94069 | 301 ft | 4 kts | 199° |
| 2026-05-05 11:09 | 37.92645 | 23.94048 | 301 ft | 5 kts | 220° |
| 2026-05-05 11:09 | 37.92624 | 23.94026 | 302 ft | 1 kts | 218° |
| 2026-05-05 11:09 | 37.92623 | 23.94025 | 302 ft | 0 kts | 218° |